Time;durP1;ratioP1;P1;durP2;ratioP2;P2;SDS_P1;SDS_P2;PMS_P1;PMS_P2;Temp;Humidity;BMP_temperature;BMP_pressure;BME280_temperature;BME280_humidity;BME280_pressure;Samples;Min_cycle;Max_cycle;Signal;HPM_P1;HPM_P2
2022/07/03 00:02:04;;;;;;;10.38;3.50;;;;;;;-147.76;100.00;60361.69;4915923;29;20044;-78
2022/07/03 00:04:31;;;;;;;9.60;3.20;;;;;;;-147.76;100.00;60361.69;4915966;29;20056;-79
2022/07/03 00:06:59;;;;;;;8.23;3.17;;;;;;;-147.76;100.00;60361.69;4915977;29;20116;-78
2022/07/03 00:09:27;;;;;;;11.85;3.05;;;;;;;-147.76;100.00;60361.69;4915817;29;20048;-78
2022/07/03 00:11:54;;;;;;;12.73;3.10;;;;;;;-147.76;100.00;60361.69;4915939;29;20048;-77
2022/07/03 00:14:24;;;;;;;9.65;3.03;;;;;;;-147.76;100.00;60361.69;4915568;29;20048;-77
2022/07/03 00:16:51;;;;;;;7.72;3.40;;;;;;;-147.76;100.00;60361.69;4915861;29;20052;-77
2022/07/03 00:19:19;;;;;;;9.05;3.15;;;;;;;-147.76;100.00;60361.69;4916065;29;20575;-77
2022/07/03 00:21:49;;;;;;;8.10;3.20;;;;;;;-147.76;100.00;60361.69;4915806;29;20048;-77
2022/07/03 00:24:21;;;;;;;8.35;3.20;;;;;;;-147.76;100.00;60361.69;4917474;29;20519;-77
2022/07/03 00:26:52;;;;;;;7.78;2.70;;;;;;;-147.76;100.00;60361.69;4915707;29;20063;-78
2022/07/03 00:29:24;;;;;;;8.82;3.60;;;;;;;-147.76;100.00;60361.69;4916491;29;20055;-78
2022/07/03 00:31:51;;;;;;;13.20;3.38;;;;;;;-147.76;100.00;60361.69;4916519;29;20115;-78
2022/07/03 00:34:20;;;;;;;7.07;2.70;;;;;;;-147.76;100.00;60361.69;4915854;29;20052;-77
2022/07/03 00:36:48;;;;;;;6.47;2.88;;;;;;;-147.76;100.00;60361.69;4915784;29;20048;-78
2022/07/03 00:39:16;;;;;;;7.80;3.30;;;;;;;-147.76;100.00;60361.69;4914785;29;20051;-77
2022/07/03 00:41:45;;;;;;;10.65;3.50;;;;;;;-147.76;100.00;60361.69;4915267;29;20056;-79
2022/07/03 00:44:13;;;;;;;8.38;3.65;;;;;;;-147.76;100.00;60361.69;4915309;29;20088;-79
2022/07/03 00:46:42;;;;;;;10.00;2.97;;;;;;;-147.76;100.00;60361.69;4915494;29;20056;-77
2022/07/03 00:49:11;;;;;;;6.32;2.90;;;;;;;-147.76;100.00;60361.69;4914927;29;20118;-78
2022/07/03 00:51:40;;;;;;;8.13;2.92;;;;;;;-147.76;100.00;60361.69;4915433;29;20051;-78
2022/07/03 00:54:09;;;;;;;8.82;3.22;;;;;;;-147.76;100.00;60361.69;4915335;29;20056;-77
2022/07/03 00:56:39;;;;;;;6.60;3.25;;;;;;;-147.76;100.00;60361.69;4915474;29;20127;-79
2022/07/03 00:59:07;;;;;;;8.10;3.20;;;;;;;-147.76;100.00;60361.69;4915482;29;20056;-77
2022/07/03 01:01:37;;;;;;;9.73;3.00;;;;;;;-147.76;100.00;60361.69;4915315;29;20095;-76
2022/07/03 01:04:22;;;;;;;9.00;3.10;;;;;;;-147.76;100.00;60361.69;4915527;29;20412;-77
2022/07/03 01:06:54;;;;;;;10.23;3.40;;;;;;;-147.76;100.00;60361.69;4915185;29;20060;-77
2022/07/03 01:09:34;;;;;;;13.57;3.65;;;;;;;-147.76;100.00;60361.69;4915952;29;20116;-78
2022/07/03 01:12:05;;;;;;;11.30;3.35;;;;;;;-147.76;100.00;60361.69;4912093;29;20084;-78
2022/07/03 01:14:40;;;;;;;16.75;4.00;;;;;;;-147.76;100.00;60361.69;4915181;29;20071;-77
2022/07/03 01:17:16;;;;;;;9.75;3.83;;;;;;;-147.76;100.00;60361.69;4916107;29;20052;-77
2022/07/03 01:19:47;;;;;;;8.80;3.30;;;;;;;-147.76;100.00;60361.69;4915878;29;20052;-78
2022/07/03 01:22:29;;;;;;;10.40;3.88;;;;;;;-147.76;100.00;60361.69;4914754;29;20487;-78
2022/07/03 01:25:15;;;;;;;12.38;3.60;;;;;;;-147.76;100.00;60361.69;4916669;29;20054;-78
2022/07/03 01:27:59;;;;;;;9.27;3.42;;;;;;;-147.76;100.00;60361.69;4908992;29;20056;-77
2022/07/03 01:30:28;;;;;;;11.57;3.47;;;;;;;-147.76;100.00;60361.69;4916151;29;20131;-77
2022/07/03 01:33:00;;;;;;;12.27;3.67;;;;;;;-147.76;100.00;60361.69;4915099;29;20052;-78
2022/07/03 01:35:34;;;;;;;7.63;3.47;;;;;;;-147.76;100.00;60361.69;4914763;29;20062;-77
2022/07/03 01:38:05;;;;;;;12.00;3.57;;;;;;;-147.76;100.00;60361.69;4915621;29;20052;-77
2022/07/03 01:40:34;;;;;;;10.88;3.42;;;;;;;-147.76;100.00;60361.69;4915705;29;20127;-76
2022/07/03 01:43:06;;;;;;;8.73;3.35;;;;;;;-147.76;100.00;60361.69;4914404;29;20067;-77
2022/07/03 01:45:38;;;;;;;11.30;3.40;;;;;;;-147.76;100.00;60361.69;4916848;29;20054;-78
2022/07/03 01:48:07;;;;;;;12.02;4.15;;;;;;;-147.76;100.00;60361.69;4915295;29;20060;-78
2022/07/03 01:50:35;;;;;;;7.68;3.20;;;;;;;-147.76;100.00;60361.69;4915023;29;20048;-78
2022/07/03 01:53:04;;;;;;;7.50;3.17;;;;;;;-147.76;100.00;60361.69;4914820;29;20052;-78
2022/07/03 01:55:32;;;;;;;11.23;3.55;;;;;;;-147.76;100.00;60361.69;4914930;29;20044;-78
2022/07/03 01:58:00;;;;;;;8.45;3.50;;;;;;;-147.76;100.00;60361.69;4914502;29;20059;-77
2022/07/03 02:00:30;;;;;;;8.38;3.10;;;;;;;-147.76;100.00;60361.69;4916492;29;20059;-78
2022/07/03 02:02:59;;;;;;;12.48;3.40;;;;;;;-147.76;100.00;60361.69;4918246;29;20508;-78
2022/07/03 02:05:32;;;;;;;10.15;3.30;;;;;;;-147.76;100.00;60361.69;4918727;29;20194;-77
2022/07/03 02:08:05;;;;;;;8.32;3.30;;;;;;;-147.76;100.00;60361.69;4918966;29;20055;-78
2022/07/03 02:10:35;;;;;;;8.13;3.20;;;;;;;-147.76;100.00;60361.69;4919270;29;20055;-78
2022/07/03 02:13:09;;;;;;;13.88;3.65;;;;;;;-147.76;100.00;60361.69;4919479;29;20052;-77
2022/07/03 02:15:41;;;;;;;9.93;3.67;;;;;;;-147.76;100.00;60361.69;4919946;29;20415;-78
2022/07/03 02:18:13;;;;;;;10.07;3.38;;;;;;;-147.76;100.00;60361.69;4917890;29;20048;-78
2022/07/03 02:20:47;;;;;;;13.88;3.55;;;;;;;-147.76;100.00;60361.69;4918816;29;20107;-78
2022/07/03 02:23:15;;;;;;;9.68;2.85;;;;;;;-147.76;100.00;60361.69;4918121;29;20048;-78
2022/07/03 02:25:43;;;;;;;16.50;3.40;;;;;;;-147.76;100.00;60361.69;4917904;29;20048;-78
2022/07/03 02:28:16;;;;;;;8.45;3.30;;;;;;;-147.76;100.00;60361.69;4917542;29;20040;-78
2022/07/03 02:30:50;;;;;;;8.70;3.03;;;;;;;-147.76;100.00;60361.69;4912232;29;20059;-77
2022/07/03 02:33:21;;;;;;;7.88;3.10;;;;;;;-147.76;100.00;60361.69;4918767;29;20052;-77
2022/07/03 02:35:49;;;;;;;10.07;3.10;;;;;;;-147.76;100.00;60361.69;4918544;29;20059;-78
2022/07/03 02:38:18;;;;;;;9.93;3.35;;;;;;;-147.76;100.00;60361.69;4917842;29;20115;-77
2022/07/03 02:40:51;;;;;;;7.50;3.63;;;;;;;-147.76;100.00;60361.69;4917560;29;20044;-78
2022/07/03 02:43:23;;;;;;;8.00;3.40;;;;;;;-147.76;100.00;60361.69;4918054;29;20056;-78
2022/07/03 02:45:58;;;;;;;7.57;2.78;;;;;;;-147.76;100.00;60361.69;4916967;29;20055;-76
2022/07/03 02:48:33;;;;;;;6.13;2.80;;;;;;;-147.76;100.00;60361.69;4918927;29;20048;-77
2022/07/03 02:51:17;;;;;;;11.43;3.05;;;;;;;-147.76;100.00;60361.69;4916888;29;20052;-77
2022/07/03 02:53:48;;;;;;;9.32;2.80;;;;;;;-147.76;100.00;60361.69;4917307;29;20139;-77
2022/07/03 02:56:22;;;;;;;8.18;2.95;;;;;;;-147.76;100.00;60361.69;4916659;29;20135;-77
2022/07/03 02:58:59;;;;;;;5.65;2.72;;;;;;;-147.76;100.00;60361.69;4916705;29;20048;-77
2022/07/03 03:01:34;;;;;;;5.05;2.70;;;;;;;-147.76;100.00;60361.69;4912323;29;20380;-78
2022/07/03 03:04:09;;;;;;;4.75;2.70;;;;;;;-147.76;100.00;60361.69;4917943;29;20080;-77
2022/07/03 03:06:38;;;;;;;5.85;2.50;;;;;;;-147.76;100.00;60361.69;4917779;29;20048;-77
2022/07/03 03:09:09;;;;;;;10.23;4.00;;;;;;;-147.76;100.00;60361.69;4916043;29;20052;-78
2022/07/03 03:11:43;;;;;;;8.77;3.15;;;;;;;-147.76;100.00;60361.69;4917612;29;20443;-78
2022/07/03 03:14:13;;;;;;;6.95;3.10;;;;;;;-147.76;100.00;60361.69;4917199;29;20048;-78
2022/07/03 03:16:47;;;;;;;5.60;2.83;;;;;;;-147.76;100.00;60361.69;4917490;29;20087;-79
2022/07/03 03:19:15;;;;;;;6.05;2.50;;;;;;;-147.76;100.00;60361.69;4917471;29;20044;-79
2022/07/03 03:21:49;;;;;;;4.47;2.50;;;;;;;-147.76;100.00;60361.69;4916952;29;20040;-78
2022/07/03 03:24:17;;;;;;;7.15;2.90;;;;;;;-147.76;100.00;60361.69;4916542;29;20468;-78
2022/07/03 03:26:45;;;;;;;6.18;2.67;;;;;;;-147.76;100.00;60361.69;4916444;29;20435;-78
2022/07/03 03:29:12;;;;;;;6.93;2.58;;;;;;;-147.76;100.00;60361.69;4916745;29;20044;-79
2022/07/03 03:31:40;;;;;;;5.80;2.55;;;;;;;-147.76;100.00;60361.69;4916414;29;20056;-77
2022/07/03 03:34:10;;;;;;;4.97;2.60;;;;;;;-147.76;100.00;60361.69;4916366;29;20047;-78
2022/07/03 03:36:38;;;;;;;6.80;2.72;;;;;;;-147.76;100.00;60361.69;4917019;29;20115;-78
2022/07/03 03:39:06;;;;;;;7.53;2.50;;;;;;;-147.76;100.00;60361.69;4916415;29;20044;-78
2022/07/03 03:41:35;;;;;;;7.47;3.65;;;;;;;-147.76;100.00;60361.69;4909632;29;20052;-78
2022/07/03 03:44:02;;;;;;;7.32;3.25;;;;;;;-147.76;100.00;60361.69;4916652;29;20040;-78
2022/07/03 03:46:30;;;;;;;6.38;2.65;;;;;;;-147.76;100.00;60361.69;4916479;29;20064;-79
2022/07/03 03:48:57;;;;;;;6.40;2.67;;;;;;;-147.76;100.00;60361.69;4916317;29;20056;-77
2022/07/03 03:51:26;;;;;;;6.43;2.65;;;;;;;-147.76;100.00;60361.69;4916210;29;20051;-77
2022/07/03 03:53:54;;;;;;;4.40;2.70;;;;;;;-147.76;100.00;60361.69;4915828;29;20052;-77
2022/07/03 03:56:22;;;;;;;5.78;2.63;;;;;;;-147.76;100.00;60361.69;4916527;29;20056;-78
2022/07/03 03:58:49;;;;;;;7.47;2.50;;;;;;;-147.76;100.00;60361.69;4918021;29;20492;-77
2022/07/03 04:01:17;;;;;;;4.72;2.45;;;;;;;-147.76;100.00;60361.69;4916170;29;20056;-78
2022/07/03 04:03:44;;;;;;;5.50;2.83;;;;;;;-147.76;100.00;60361.69;4916169;29;20051;-76
2022/07/03 04:06:11;;;;;;;5.65;2.75;;;;;;;-147.76;100.00;60361.69;4916307;29;20094;-78
2022/07/03 04:08:40;;;;;;;5.07;2.95;;;;;;;-147.76;100.00;60361.69;4915743;29;20119;-77
2022/07/03 04:11:08;;;;;;;4.65;2.78;;;;;;;-147.76;100.00;60361.69;4915947;29;20048;-78
2022/07/03 04:13:35;;;;;;;6.53;2.90;;;;;;;-147.76;100.00;60361.69;4915552;29;20052;-79
2022/07/03 04:16:03;;;;;;;4.65;2.58;;;;;;;-147.76;100.00;60361.69;4914532;29;20139;-79
2022/07/03 04:18:31;;;;;;;6.93;2.70;;;;;;;-147.76;100.00;60361.69;4915663;29;20181;-76
2022/07/03 04:20:58;;;;;;;5.72;2.70;;;;;;;-147.76;100.00;60361.69;4915386;29;20049;-75
2022/07/03 04:23:26;;;;;;;5.50;2.40;;;;;;;-147.76;100.00;60361.69;4914862;29;20044;-77
2022/07/03 04:25:55;;;;;;;7.70;3.10;;;;;;;-147.76;100.00;60361.69;4915160;29;20420;-75
2022/07/03 04:28:22;;;;;;;5.47;3.00;;;;;;;-147.76;100.00;60361.69;4915296;29;20051;-81
2022/07/03 04:30:50;;;;;;;7.80;3.10;;;;;;;-147.76;100.00;60361.69;4915052;29;20063;-78
2022/07/03 04:33:17;;;;;;;7.00;3.00;;;;;;;-147.76;100.00;60361.69;4915710;29;20048;-79
2022/07/03 04:35:45;;;;;;;9.00;3.53;;;;;;;-147.76;100.00;60361.69;4916006;29;20055;-79
2022/07/03 04:38:12;;;;;;;8.25;3.72;;;;;;;-147.76;100.00;60361.69;4915413;29;20048;-78
2022/07/03 04:40:40;;;;;;;7.00;3.30;;;;;;;-147.76;100.00;60361.69;4915067;29;20610;-77
2022/07/03 04:43:09;;;;;;;7.55;3.53;;;;;;;-147.76;100.00;60361.69;4914940;29;20052;-78
2022/07/03 04:45:36;;;;;;;7.65;3.60;;;;;;;-147.76;100.00;60361.69;4917239;29;20082;-78
2022/07/03 04:48:04;;;;;;;8.07;3.80;;;;;;;-147.76;100.00;60361.69;4915977;29;20051;-78
2022/07/03 04:50:32;;;;;;;9.63;4.32;;;;;;;-147.76;100.00;60361.69;4915315;29;20052;-78
2022/07/03 04:52:59;;;;;;;8.10;4.57;;;;;;;-147.76;100.00;60361.69;4914970;29;20452;-74
2022/07/03 04:55:27;;;;;;;8.10;3.70;;;;;;;-147.76;100.00;60361.69;4915463;29;20052;-75
2022/07/03 04:57:54;;;;;;;8.85;3.67;;;;;;;-147.76;100.00;60361.69;4916164;29;20119;-77
2022/07/03 05:00:23;;;;;;;11.25;3.55;;;;;;;-147.76;100.00;60361.69;4917323;29;20178;-76
2022/07/03 05:02:51;;;;;;;8.07;3.72;;;;;;;-147.76;100.00;60361.69;4915489;29;20071;-76
2022/07/03 05:05:19;;;;;;;9.27;4.00;;;;;;;-147.76;100.00;60361.69;4915353;29;20052;-76
2022/07/03 05:07:47;;;;;;;9.63;4.00;;;;;;;-147.76;100.00;60361.69;4918162;29;20064;-75
2022/07/03 05:10:15;;;;;;;8.52;4.00;;;;;;;-147.76;100.00;60361.69;4915495;29;20048;-73
2022/07/03 05:12:42;;;;;;;9.43;3.95;;;;;;;-147.76;100.00;60361.69;4915075;29;20068;-78
2022/07/03 05:15:10;;;;;;;8.70;4.00;;;;;;;-147.76;100.00;60361.69;4915406;29;20048;-77
2022/07/03 05:17:39;;;;;;;9.68;4.03;;;;;;;-147.76;100.00;60361.69;4915378;29;20402;-72
2022/07/03 05:20:28;;;;;;;11.30;4.85;;;;;;;-147.76;100.00;60361.69;4914688;29;20527;-73
2022/07/03 05:22:56;;;;;;;10.45;4.35;;;;;;;-147.76;100.00;60361.69;4922862;29;20103;-73
2022/07/03 05:25:23;;;;;;;10.60;4.60;;;;;;;-147.76;100.00;60361.69;4914960;29;20040;-72
2022/07/03 05:27:52;;;;;;;9.82;4.28;;;;;;;-147.76;100.00;60361.69;4912071;29;20054;-72
2022/07/03 05:30:20;;;;;;;9.68;4.32;;;;;;;-147.76;100.00;60361.69;4912175;29;20052;-71
2022/07/03 05:32:49;;;;;;;10.18;4.57;;;;;;;-147.76;100.00;60361.69;4911952;29;20488;-72
2022/07/03 05:35:17;;;;;;;9.18;4.32;;;;;;;-147.76;100.00;60361.69;4907444;29;20048;-74
2022/07/03 05:37:45;;;;;;;9.93;5.00;;;;;;;-147.76;100.00;60361.69;4915554;29;20104;-73
2022/07/03 05:40:13;;;;;;;10.23;4.82;;;;;;;-147.76;100.00;60361.69;4915438;29;20555;-76
2022/07/03 05:42:40;;;;;;;10.20;4.93;;;;;;;-147.76;100.00;60361.69;4915294;29;20810;-73
2022/07/03 05:45:10;;;;;;;11.93;4.60;;;;;;;-147.76;100.00;60361.69;4914932;29;20067;-72
2022/07/03 05:47:37;;;;;;;10.88;4.60;;;;;;;-147.76;100.00;60361.69;4915678;29;20048;-73
2022/07/03 05:50:07;;;;;;;9.88;4.57;;;;;;;-147.76;100.00;60361.69;4915208;29;20122;-75
2022/07/03 05:52:35;;;;;;;9.02;4.30;;;;;;;-147.76;100.00;60361.69;4915875;29;20056;-72
2022/07/03 05:55:02;;;;;;;8.68;4.13;;;;;;;-147.76;100.00;60361.69;4915471;29;20071;-73
2022/07/03 05:57:30;;;;;;;8.25;4.15;;;;;;;-147.76;100.00;60361.69;4915386;29;20503;-73
2022/07/03 05:59:57;;;;;;;7.22;3.83;;;;;;;-147.76;100.00;60361.69;4915269;29;20106;-73
2022/07/03 06:02:25;;;;;;;7.40;3.75;;;;;;;-147.76;100.00;60361.69;4915515;29;20048;-73
2022/07/03 06:04:52;;;;;;;9.05;4.00;;;;;;;-147.76;100.00;60361.69;4914817;29;20571;-73
2022/07/03 06:07:22;;;;;;;8.40;4.28;;;;;;;-147.76;100.00;60361.69;4915116;29;20511;-73
2022/07/03 06:09:49;;;;;;;8.52;3.85;;;;;;;-147.76;100.00;60361.69;4914846;29;20079;-73
2022/07/03 06:12:16;;;;;;;8.48;4.15;;;;;;;-147.76;100.00;60361.69;4914947;29;20044;-73
2022/07/03 06:14:44;;;;;;;10.43;4.10;;;;;;;-147.76;100.00;60361.69;4915279;29;20063;-72
2022/07/03 06:17:12;;;;;;;7.25;3.90;;;;;;;-147.76;100.00;60361.69;4914790;29;20067;-73
2022/07/03 06:19:39;;;;;;;9.80;4.40;;;;;;;-147.76;100.00;60361.69;4914758;29;20072;-73
2022/07/03 06:22:07;;;;;;;12.50;4.70;;;;;;;-147.76;100.00;60361.69;4914549;29;20052;-72
2022/07/03 06:24:36;;;;;;;8.77;4.47;;;;;;;-147.76;100.00;60361.69;4914945;29;20052;-73
2022/07/03 06:27:03;;;;;;;8.40;4.57;;;;;;;-147.76;100.00;60361.69;4914958;29;20507;-73
2022/07/03 06:29:31;;;;;;;9.15;4.70;;;;;;;-147.76;100.00;60361.69;4914925;29;20435;-74
2022/07/03 06:31:59;;;;;;;9.93;5.00;;;;;;;-147.76;100.00;60361.69;4914647;29;20127;-72
2022/07/03 06:34:27;;;;;;;9.98;5.15;;;;;;;-147.76;100.00;60361.69;4914667;29;20115;-75
2022/07/03 06:36:55;;;;;;;9.25;5.20;;;;;;;-147.76;100.00;60361.69;4915370;29;20051;-77
2022/07/03 06:39:22;;;;;;;10.75;5.10;;;;;;;-147.76;100.00;60361.69;4914191;29;20044;-75
2022/07/03 06:41:51;;;;;;;11.80;5.80;;;;;;;-147.76;100.00;60361.69;4914380;29;20100;-75
2022/07/03 06:44:19;;;;;;;11.00;5.10;;;;;;;-147.76;100.00;60361.69;4914718;29;20510;-74
2022/07/03 06:46:47;;;;;;;10.38;5.50;;;;;;;-147.76;100.00;60361.69;4913620;29;20059;-74
2022/07/03 06:49:14;;;;;;;9.63;5.07;;;;;;;-147.76;100.00;60361.69;4914202;29;20064;-74
2022/07/03 06:51:42;;;;;;;12.38;5.70;;;;;;;-147.76;100.00;60361.69;4914717;29;20056;-76
2022/07/03 06:54:10;;;;;;;11.40;5.95;;;;;;;-147.76;100.00;60361.69;4914283;29;20558;-77
2022/07/03 06:56:38;;;;;;;10.93;6.03;;;;;;;-147.76;100.00;60361.69;4913161;29;20040;-74
2022/07/03 06:59:07;;;;;;;11.90;6.25;;;;;;;-147.76;100.00;60361.69;4913914;29;20052;-74
2022/07/03 07:01:34;;;;;;;10.50;6.13;;;;;;;-147.76;100.00;60361.69;4914209;29;20054;-74
2022/07/03 07:04:02;;;;;;;13.43;6.10;;;;;;;-147.76;100.00;60361.69;4913700;29;20064;-73
2022/07/03 07:06:30;;;;;;;11.82;6.30;;;;;;;-147.76;100.00;60361.69;4914571;29;20060;-74
2022/07/03 07:08:58;;;;;;;11.85;5.70;;;;;;;-147.76;100.00;60361.69;4914501;29;20070;-79
2022/07/03 07:11:26;;;;;;;13.57;7.00;;;;;;;-147.76;100.00;60361.69;4907299;29;20045;-74
2022/07/03 07:13:54;;;;;;;11.30;6.47;;;;;;;-147.76;100.00;60361.69;4914135;29;20052;-78
2022/07/03 07:16:23;;;;;;;13.38;7.57;;;;;;;-147.76;100.00;60361.69;4913523;29;20048;-80
2022/07/03 07:18:51;;;;;;;14.50;7.90;;;;;;;-147.76;100.00;60361.69;4912890;29;20103;-77
2022/07/03 07:21:23;;;;;;;16.70;7.28;;;;;;;-147.76;100.00;60361.69;4913215;29;20068;-79
2022/07/03 07:23:51;;;;;;;11.98;6.88;;;;;;;-147.76;100.00;60361.69;4896924;29;20147;-76
2022/07/03 07:26:20;;;;;;;11.77;6.65;;;;;;;-147.76;100.00;60361.69;4906668;29;20055;-77
2022/07/03 07:28:48;;;;;;;14.05;7.10;;;;;;;-147.76;100.00;60361.69;4918976;29;20048;-77
2022/07/03 07:31:20;;;;;;;12.73;7.45;;;;;;;-147.76;100.00;60361.69;4925043;29;20416;-78
2022/07/03 07:33:49;;;;;;;12.27;7.13;;;;;;;-147.76;100.00;60361.69;4924084;29;20044;-73
2022/07/03 07:36:17;;;;;;;15.30;7.50;;;;;;;-147.76;100.00;60361.69;4923902;29;20154;-72
2022/07/03 07:38:44;;;;;;;13.82;7.80;;;;;;;-147.76;100.00;60361.69;4925993;29;20056;-73
2022/07/03 07:41:12;;;;;;;13.85;7.55;;;;;;;-147.76;100.00;60361.69;4911151;29;20508;-72
2022/07/03 07:43:39;;;;;;;13.75;7.97;;;;;;;-147.76;100.00;60361.69;4912775;29;20064;-72
2022/07/03 07:46:07;;;;;;;13.60;7.72;;;;;;;-147.76;100.00;60361.69;4913192;29;20049;-72
2022/07/03 07:48:35;;;;;;;14.95;7.78;;;;;;;-147.76;100.00;60361.69;4913372;29;20047;-72
2022/07/03 07:51:04;;;;;;;14.05;7.90;;;;;;;-147.76;100.00;60361.69;4916820;29;20115;-72
2022/07/03 07:53:32;;;;;;;14.57;7.68;;;;;;;-147.76;100.00;60361.69;4919027;29;20130;-72
2022/07/03 07:55:59;;;;;;;14.30;7.93;;;;;;;-147.76;100.00;60361.69;4917279;29;20054;-72
2022/07/03 07:58:27;;;;;;;15.70;7.75;;;;;;;-147.76;100.00;60361.69;4917147;29;20059;-73
2022/07/03 08:06:26;;;;;;;14.93;8.82;;;;;;;-147.76;100.00;60361.69;4927607;29;20048;-73
2022/07/03 08:08:53;;;;;;;18.95;8.57;;;;;;;-147.76;100.00;60361.69;4918861;29;20051;-72
2022/07/03 08:11:21;;;;;;;16.38;9.00;;;;;;;-147.76;100.00;60361.69;4920242;29;20048;-73
2022/07/03 08:13:48;;;;;;;17.55;9.30;;;;;;;-147.76;100.00;60361.69;4919342;29;20073;-74
2022/07/03 08:16:17;;;;;;;15.85;9.07;;;;;;;-147.76;100.00;60361.69;4914875;29;20056;-74
2022/07/03 08:18:44;;;;;;;15.90;8.98;;;;;;;-147.76;100.00;60361.69;4915893;29;20048;-75
2022/07/03 08:21:12;;;;;;;15.10;8.77;;;;;;;-147.76;100.00;60361.69;4915622;29;20044;-76
2022/07/03 08:23:41;;;;;;;14.15;8.93;;;;;;;-147.76;100.00;60361.69;4915998;29;20055;-76
2022/07/03 08:26:08;;;;;;;15.77;9.05;;;;;;;-147.76;100.00;60361.69;4915426;29;20048;-75
2022/07/03 08:28:36;;;;;;;16.35;9.43;;;;;;;-147.76;100.00;60361.69;4916052;29;20585;-78
2022/07/03 08:31:03;;;;;;;17.25;10.00;;;;;;;-147.76;100.00;60361.69;4909162;29;20501;-74
2022/07/03 08:33:31;;;;;;;15.15;9.85;;;;;;;-147.76;100.00;60361.69;4915099;29;20052;-73
2022/07/03 08:35:58;;;;;;;14.85;9.38;;;;;;;-147.76;100.00;60361.69;4915073;29;20515;-74
2022/07/03 08:38:30;;;;;;;14.60;9.40;;;;;;;-147.76;100.00;60361.69;4913592;29;20044;-73
2022/07/03 08:41:00;;;;;;;15.65;9.32;;;;;;;-147.76;100.00;60361.69;4915449;29;20048;-74
2022/07/03 08:43:28;;;;;;;18.05;9.40;;;;;;;-147.76;100.00;60361.69;4915769;29;20048;-73
2022/07/03 08:45:56;;;;;;;15.65;9.32;;;;;;;-147.76;100.00;60361.69;4915704;29;20047;-73
2022/07/03 08:48:24;;;;;;;16.77;8.77;;;;;;;-147.76;100.00;60361.69;4915609;29;20044;-73
2022/07/03 08:50:52;;;;;;;18.63;9.15;;;;;;;-147.76;100.00;60361.69;4915631;29;20044;-74
2022/07/03 08:53:20;;;;;;;18.20;9.50;;;;;;;-147.76;100.00;60361.69;4915153;29;20052;-73
2022/07/03 08:55:49;;;;;;;17.25;8.88;;;;;;;-147.76;100.00;60361.69;4918296;29;20083;-74
2022/07/03 08:58:19;;;;;;;18.45;9.18;;;;;;;-147.76;100.00;60361.69;4915005;29;20051;-73
2022/07/03 09:00:47;;;;;;;15.05;8.85;;;;;;;-147.76;100.00;60361.69;4915328;29;20150;-74
2022/07/03 09:03:15;;;;;;;15.77;9.55;;;;;;;-147.76;100.00;60361.69;4915468;29;20060;-72
2022/07/03 09:05:43;;;;;;;16.02;8.85;;;;;;;-147.76;100.00;60361.69;4915402;29;20435;-78
2022/07/03 09:08:11;;;;;;;16.98;8.73;;;;;;;-147.76;100.00;60361.69;4915572;29;20048;-76
2022/07/03 09:10:39;;;;;;;15.48;8.00;;;;;;;-147.76;100.00;60361.69;4914828;29;20514;-75
2022/07/03 09:13:06;;;;;;;20.52;9.38;;;;;;;-147.76;100.00;60361.69;4917783;29;20048;-76
2022/07/03 09:15:35;;;;;;;15.82;8.88;;;;;;;-147.76;100.00;60361.69;4915380;29;20044;-78
2022/07/03 09:18:05;;;;;;;15.27;8.43;;;;;;;-147.76;100.00;60361.69;4915268;29;20055;-77
2022/07/03 09:20:34;;;;;;;18.27;8.85;;;;;;;-147.76;100.00;60361.69;4915180;29;20051;-78
2022/07/03 09:23:12;;;;;;;14.15;7.97;;;;;;;-147.76;100.00;60361.69;4916184;29;20059;-78
2022/07/03 09:25:56;;;;;;;15.00;8.50;;;;;;;-147.76;100.00;60361.69;4914422;29;20055;-79
2022/07/03 09:28:24;;;;;;;16.60;8.40;;;;;;;-147.76;100.00;60361.69;4914389;29;20055;-78
2022/07/03 09:31:01;;;;;;;16.13;7.72;;;;;;;-147.76;100.00;60361.69;4915629;29;20124;-75
2022/07/03 09:33:29;;;;;;;15.02;7.72;;;;;;;-147.76;100.00;60361.69;4917928;29;20044;-75
2022/07/03 09:35:57;;;;;;;14.52;7.57;;;;;;;-147.76;100.00;60361.69;4914701;29;20048;-76
2022/07/03 09:38:24;;;;;;;15.95;7.55;;;;;;;-147.76;100.00;60361.69;4915093;29;20515;-78
2022/07/03 09:40:54;;;;;;;13.15;7.10;;;;;;;-147.76;100.00;60361.69;4914448;29;20044;-77
2022/07/03 09:43:26;;;;;;;12.77;7.35;;;;;;;-147.76;100.00;60361.69;4914191;29;20056;-76
2022/07/03 09:45:55;;;;;;;13.25;7.28;;;;;;;-147.76;100.00;60361.69;4915704;29;20048;-74
2022/07/03 09:48:29;;;;;;;15.27;8.25;;;;;;;-147.76;100.00;60361.69;4914613;29;20051;-75
2022/07/03 09:51:15;;;;;;;12.55;7.75;;;;;;;-147.76;100.00;60361.69;4908158;29;20058;-77
2022/07/03 09:53:47;;;;;;;18.15;8.02;;;;;;;-147.76;100.00;60361.69;4911574;29;20064;-74
2022/07/03 09:56:16;;;;;;;15.32;7.70;;;;;;;-147.76;100.00;60361.69;4911341;29;20111;-75
2022/07/03 09:59:00;;;;;;;12.50;7.88;;;;;;;-147.76;100.00;60361.69;4911943;29;20064;-73
2022/07/03 10:01:28;;;;;;;19.48;9.07;;;;;;;-147.76;100.00;60361.69;4915255;29;20051;-75
2022/07/03 10:04:10;;;;;;;13.63;8.32;;;;;;;-147.76;100.00;60361.69;4917648;29;20137;-73
2022/07/03 10:06:47;;;;;;;12.65;7.55;;;;;;;-147.76;100.00;60361.69;4918036;29;20048;-79
2022/07/03 10:09:17;;;;;;;13.50;8.00;;;;;;;-147.76;100.00;60361.69;4919095;29;20048;-74
2022/07/03 10:11:45;;;;;;;17.63;10.50;;;;;;;-147.76;100.00;60361.69;4917152;29;20103;-73
2022/07/03 10:14:14;;;;;;;14.57;8.48;;;;;;;-147.76;100.00;60361.69;4917392;29;20416;-74
2022/07/03 10:16:46;;;;;;;14.77;8.15;;;;;;;-147.76;100.00;60361.69;4916615;29;20366;-77
2022/07/03 10:19:19;;;;;;;15.50;7.90;;;;;;;-147.76;100.00;60361.69;4918039;29;20052;-76
2022/07/03 10:21:53;;;;;;;14.55;7.38;;;;;;;-147.76;100.00;60361.69;4920232;29;20123;-73
2022/07/03 10:24:23;;;;;;;13.88;7.75;;;;;;;-147.76;100.00;60361.69;4922638;29;20124;-75
2022/07/03 10:26:52;;;;;;;12.82;7.68;;;;;;;-147.76;100.00;60361.69;4923723;29;20048;-73
2022/07/03 10:29:21;;;;;;;13.30;7.65;;;;;;;-147.76;100.00;60361.69;4921466;29;20128;-75
2022/07/03 10:31:49;;;;;;;13.05;7.88;;;;;;;-147.76;100.00;60361.69;4921978;29;20052;-75
2022/07/03 10:34:22;;;;;;;16.17;8.52;;;;;;;-147.76;100.00;60361.69;4919163;29;20052;-76
2022/07/03 10:36:54;;;;;;;13.13;7.70;;;;;;;-147.76;100.00;60361.69;4920193;29;20098;-74
2022/07/03 10:39:34;;;;;;;12.95;7.40;;;;;;;-147.76;100.00;60361.69;4922763;29;20058;-73
2022/07/03 10:44:52;;;;;;;12.13;7.20;;;;;;;-147.76;100.00;60361.69;4913414;29;20059;-74
2022/07/03 10:47:47;;;;;;;12.82;7.30;;;;;;;-147.76;100.00;60361.69;4913233;29;20052;-72
2022/07/03 10:50:17;;;;;;;11.77;7.15;;;;;;;-147.76;100.00;60361.69;4911914;29;20800;-73
2022/07/03 10:52:45;;;;;;;12.20;7.25;;;;;;;-147.76;100.00;60361.69;4916785;29;20086;-72
2022/07/03 10:55:13;;;;;;;12.93;7.28;;;;;;;-147.76;100.00;60361.69;4914270;29;20048;-77
2022/07/03 10:57:42;;;;;;;181.82;149.85;;;;;;;-147.76;100.00;60361.69;4914407;29;20048;-73
2022/07/03 11:00:18;;;;;;;57.13;40.75;;;;;;;-147.76;100.00;60361.69;4914482;29;20071;-78
2022/07/03 11:02:47;;;;;;;;;;;;;;;-147.76;100.00;60361.69;4916871;29;20056;-76
2022/07/03 11:05:21;;;;;;;12.82;7.40;;;;;;;-147.76;100.00;60361.69;4914057;29;20347;-72
2022/07/03 11:08:21;;;;;;;12.82;7.65;;;;;;;-147.76;100.00;60361.69;4914706;29;20083;-73
2022/07/03 11:11:54;;;;;;;14.25;7.30;;;;;;;-147.76;100.00;60361.69;4916548;29;20056;-72
2022/07/03 11:13:36;;;;;;;12.13;7.32;;;;;;;-147.76;100.00;60361.69;4912977;29;20044;-74
2022/07/03 11:16:04;;;;;;;13.32;8.27;;;;;;;-147.76;100.00;60361.69;4914470;29;20044;-73
2022/07/03 11:18:33;;;;;;;11.45;7.72;;;;;;;-147.76;100.00;60361.69;4913726;29;20404;-74
2022/07/03 11:21:26;;;;;;;11.45;7.22;;;;;;;-147.76;100.00;60361.69;4913241;29;20060;-78
2022/07/03 11:24:43;;;;;;;12.95;7.53;;;;;;;-147.76;100.00;60361.69;4911865;29;20135;-76
2022/07/03 11:27:27;;;;;;;13.48;7.80;;;;;;;-147.76;100.00;60361.69;4874345;29;20104;-77